Terminal Aerodrome Forecast
Issued by NWS Quad Cities IA IL

Home | Current Version | Previous Version | Text Only | Print | Product List | Glossary On
Versions: 1 2 3 4 5 6 7 8 9 10 11 12 13 14 15 16 17 18 19 20
000
FTUS43 KDVN 010100 AAA
TAFDBQ
TAF AMD
KDBQ 010134Z 0102/0124 06008KT 2SM -SN BR OVC010
      TEMPO 0102/0104 1 1/2SM -SN BR OVC006
     FM010400 07012KT 1 1/2SM -SN BR OVC004
     FM010500 08011KT 1/2SM SN FZFG OVC003
     FM011000 08018G26KT 1/2SM SN OVC003
     FM011700 03022G30KT 1/2SM SN BLSN OVC004=

USA.gov is the U.S. government's official web portal to all federal, state and local government web resources and services.